sensor_id;sensor_type;location;lat;lon;timestamp;P1;durP1;ratioP1;P2;durP2;ratioP2
40931;SDS011;36257;46.052;12.540;2023-08-31T00:01:48;1.55;;;0.60;;
40931;SDS011;36257;46.052;12.540;2023-08-31T00:04:14;1.20;;;0.80;;
40931;SDS011;36257;46.052;12.540;2023-08-31T00:06:40;1.25;;;0.60;;
40931;SDS011;36257;46.052;12.540;2023-08-31T00:09:06;4.88;;;0.63;;
40931;SDS011;36257;46.052;12.540;2023-08-31T00:14:00;1.80;;;0.43;;
40931;SDS011;36257;46.052;12.540;2023-08-31T00:16:26;2.80;;;0.70;;
40931;SDS011;36257;46.052;12.540;2023-08-31T00:18:52;5.05;;;0.80;;
40931;SDS011;36257;46.052;12.540;2023-08-31T00:21:19;2.58;;;0.55;;
40931;SDS011;36257;46.052;12.540;2023-08-31T00:23:46;0.77;;;0.75;;
40931;SDS011;36257;46.052;12.540;2023-08-31T00:26:12;1.40;;;0.70;;
40931;SDS011;36257;46.052;12.540;2023-08-31T00:28:37;1.55;;;0.80;;
40931;SDS011;36257;46.052;12.540;2023-08-31T00:31:04;3.92;;;0.70;;
40931;SDS011;36257;46.052;12.540;2023-08-31T00:33:29;1.08;;;0.50;;
40931;SDS011;36257;46.052;12.540;2023-08-31T00:35:55;3.53;;;0.65;;
40931;SDS011;36257;46.052;12.540;2023-08-31T00:38:26;1.55;;;0.57;;
40931;SDS011;36257;46.052;12.540;2023-08-31T00:40:52;2.47;;;0.60;;
40931;SDS011;36257;46.052;12.540;2023-08-31T00:43:19;1.58;;;0.52;;
40931;SDS011;36257;46.052;12.540;2023-08-31T00:45:45;3.38;;;0.60;;
40931;SDS011;36257;46.052;12.540;2023-08-31T00:48:14;0.65;;;0.52;;
40931;SDS011;36257;46.052;12.540;2023-08-31T00:50:47;0.68;;;0.50;;
40931;SDS011;36257;46.052;12.540;2023-08-31T00:53:14;3.83;;;1.10;;
40931;SDS011;36257;46.052;12.540;2023-08-31T00:55:40;4.43;;;1.25;;
40931;SDS011;36257;46.052;12.540;2023-08-31T00:58:07;1.15;;;0.82;;
40931;SDS011;36257;46.052;12.540;2023-08-31T01:00:36;2.30;;;0.50;;
40931;SDS011;36257;46.052;12.540;2023-08-31T01:05:54;2.28;;;0.60;;
40931;SDS011;36257;46.052;12.540;2023-08-31T01:08:31;0.82;;;0.60;;
40931;SDS011;36257;46.052;12.540;2023-08-31T01:14:12;6.43;;;0.80;;
40931;SDS011;36257;46.052;12.540;2023-08-31T01:16:43;0.73;;;0.50;;
40931;SDS011;36257;46.052;12.540;2023-08-31T01:26:43;1.10;;;0.65;;
40931;SDS011;36257;46.052;12.540;2023-08-31T01:29:09;4.50;;;1.05;;
40931;SDS011;36257;46.052;12.540;2023-08-31T01:31:41;1.75;;;0.80;;
40931;SDS011;36257;46.052;12.540;2023-08-31T01:36:59;2.10;;;0.60;;
40931;SDS011;36257;46.052;12.540;2023-08-31T01:42:11;2.05;;;0.50;;
40931;SDS011;36257;46.052;12.540;2023-08-31T01:44:40;2.40;;;0.88;;
40931;SDS011;36257;46.052;12.540;2023-08-31T01:47:08;1.95;;;0.60;;
40931;SDS011;36257;46.052;12.540;2023-08-31T01:49:38;0.45;;;0.45;;
40931;SDS011;36257;46.052;12.540;2023-08-31T01:52:05;3.38;;;0.70;;
40931;SDS011;36257;46.052;12.540;2023-08-31T01:54:31;7.50;;;1.83;;
40931;SDS011;36257;46.052;12.540;2023-08-31T01:56:57;2.28;;;0.55;;
40931;SDS011;36257;46.052;12.540;2023-08-31T01:59:23;3.15;;;1.10;;
40931;SDS011;36257;46.052;12.540;2023-08-31T02:01:49;4.13;;;0.70;;
40931;SDS011;36257;46.052;12.540;2023-08-31T02:04:15;2.33;;;0.40;;
40931;SDS011;36257;46.052;12.540;2023-08-31T02:06:40;4.53;;;0.93;;
40931;SDS011;36257;46.052;12.540;2023-08-31T02:09:06;1.85;;;0.70;;
40931;SDS011;36257;46.052;12.540;2023-08-31T02:11:32;2.53;;;0.47;;
40931;SDS011;36257;46.052;12.540;2023-08-31T02:14:01;5.20;;;0.60;;
40931;SDS011;36257;46.052;12.540;2023-08-31T02:16:27;0.57;;;0.55;;
40931;SDS011;36257;46.052;12.540;2023-08-31T02:18:53;4.15;;;0.70;;
40931;SDS011;36257;46.052;12.540;2023-08-31T02:21:18;3.72;;;0.52;;
40931;SDS011;36257;46.052;12.540;2023-08-31T02:23:45;2.15;;;0.50;;
40931;SDS011;36257;46.052;12.540;2023-08-31T02:26:13;1.95;;;0.40;;
40931;SDS011;36257;46.052;12.540;2023-08-31T02:28:39;1.05;;;0.63;;
40931;SDS011;36257;46.052;12.540;2023-08-31T02:31:05;4.38;;;0.75;;
40931;SDS011;36257;46.052;12.540;2023-08-31T02:33:30;1.60;;;0.70;;
40931;SDS011;36257;46.052;12.540;2023-08-31T02:35:56;2.03;;;0.43;;
40931;SDS011;36257;46.052;12.540;2023-08-31T02:38:22;1.20;;;0.50;;
40931;SDS011;36257;46.052;12.540;2023-08-31T02:40:48;0.60;;;0.50;;
40931;SDS011;36257;46.052;12.540;2023-08-31T02:43:14;2.35;;;0.50;;
40931;SDS011;36257;46.052;12.540;2023-08-31T02:45:40;4.38;;;0.77;;
40931;SDS011;36257;46.052;12.540;2023-08-31T02:48:06;4.38;;;0.88;;
40931;SDS011;36257;46.052;12.540;2023-08-31T02:50:33;1.05;;;0.70;;
40931;SDS011;36257;46.052;12.540;2023-08-31T02:53:00;0.68;;;0.50;;
40931;SDS011;36257;46.052;12.540;2023-08-31T02:55:26;2.58;;;0.80;;
40931;SDS011;36257;46.052;12.540;2023-08-31T02:57:51;3.30;;;0.70;;
40931;SDS011;36257;46.052;12.540;2023-08-31T03:00:17;4.30;;;0.80;;
40931;SDS011;36257;46.052;12.540;2023-08-31T03:02:46;1.17;;;0.75;;
40931;SDS011;36257;46.052;12.540;2023-08-31T03:05:17;6.20;;;1.35;;
40931;SDS011;36257;46.052;12.540;2023-08-31T03:07:43;2.70;;;0.63;;
40931;SDS011;36257;46.052;12.540;2023-08-31T03:10:09;2.28;;;0.60;;
40931;SDS011;36257;46.052;12.540;2023-08-31T03:12:35;0.75;;;0.60;;
40931;SDS011;36257;46.052;12.540;2023-08-31T03:15:01;1.50;;;0.70;;
40931;SDS011;36257;46.052;12.540;2023-08-31T03:17:27;2.05;;;0.47;;
40931;SDS011;36257;46.052;12.540;2023-08-31T03:19:53;3.03;;;1.08;;
40931;SDS011;36257;46.052;12.540;2023-08-31T03:22:18;3.38;;;1.42;;
40931;SDS011;36257;46.052;12.540;2023-08-31T03:24:44;2.15;;;0.70;;
40931;SDS011;36257;46.052;12.540;2023-08-31T03:27:10;2.22;;;0.60;;
40931;SDS011;36257;46.052;12.540;2023-08-31T03:29:36;2.30;;;0.63;;
40931;SDS011;36257;46.052;12.540;2023-08-31T03:32:01;0.75;;;0.40;;
40931;SDS011;36257;46.052;12.540;2023-08-31T03:34:30;3.00;;;1.02;;
40931;SDS011;36257;46.052;12.540;2023-08-31T03:36:56;2.90;;;0.60;;
40931;SDS011;36257;46.052;12.540;2023-08-31T03:39:23;3.83;;;0.70;;
40931;SDS011;36257;46.052;12.540;2023-08-31T03:41:49;0.50;;;0.50;;
40931;SDS011;36257;46.052;12.540;2023-08-31T03:44:15;1.60;;;0.70;;
40931;SDS011;36257;46.052;12.540;2023-08-31T03:46:40;3.00;;;0.80;;
40931;SDS011;36257;46.052;12.540;2023-08-31T03:49:07;1.23;;;0.50;;
40931;SDS011;36257;46.052;12.540;2023-08-31T03:51:32;6.88;;;0.70;;
40931;SDS011;36257;46.052;12.540;2023-08-31T03:53:58;2.60;;;0.60;;
40931;SDS011;36257;46.052;12.540;2023-08-31T03:56:24;1.02;;;0.50;;
40931;SDS011;36257;46.052;12.540;2023-08-31T03:58:50;1.65;;;0.70;;
40931;SDS011;36257;46.052;12.540;2023-08-31T04:01:16;4.22;;;0.60;;
40931;SDS011;36257;46.052;12.540;2023-08-31T04:03:42;1.27;;;0.53;;
40931;SDS011;36257;46.052;12.540;2023-08-31T04:06:08;1.63;;;0.68;;
40931;SDS011;36257;46.052;12.540;2023-08-31T04:08:34;3.10;;;0.80;;
40931;SDS011;36257;46.052;12.540;2023-08-31T04:10:59;1.67;;;0.60;;
40931;SDS011;36257;46.052;12.540;2023-08-31T04:13:25;0.75;;;0.75;;
40931;SDS011;36257;46.052;12.540;2023-08-31T04:15:52;2.72;;;0.70;;
40931;SDS011;36257;46.052;12.540;2023-08-31T04:18:18;1.60;;;0.60;;
40931;SDS011;36257;46.052;12.540;2023-08-31T04:20:51;0.75;;;0.65;;
40931;SDS011;36257;46.052;12.540;2023-08-31T04:23:17;0.93;;;0.50;;
40931;SDS011;36257;46.052;12.540;2023-08-31T04:25:46;1.10;;;0.70;;
40931;SDS011;36257;46.052;12.540;2023-08-31T04:28:13;2.92;;;0.57;;
40931;SDS011;36257;46.052;12.540;2023-08-31T04:30:39;1.58;;;0.60;;
40931;SDS011;36257;46.052;12.540;2023-08-31T04:33:05;1.73;;;1.20;;
40931;SDS011;36257;46.052;12.540;2023-08-31T04:35:31;0.82;;;0.55;;
40931;SDS011;36257;46.052;12.540;2023-08-31T04:37:58;1.25;;;0.88;;
40931;SDS011;36257;46.052;12.540;2023-08-31T04:40:23;1.05;;;0.40;;
40931;SDS011;36257;46.052;12.540;2023-08-31T04:42:51;0.90;;;0.50;;
40931;SDS011;36257;46.052;12.540;2023-08-31T04:45:17;1.48;;;0.60;;
40931;SDS011;36257;46.052;12.540;2023-08-31T04:47:43;3.53;;;0.55;;
40931;SDS011;36257;46.052;12.540;2023-08-31T04:50:09;2.95;;;0.70;;
40931;SDS011;36257;46.052;12.540;2023-08-31T04:52:35;3.03;;;0.60;;
40931;SDS011;36257;46.052;12.540;2023-08-31T04:55:01;2.55;;;0.75;;
40931;SDS011;36257;46.052;12.540;2023-08-31T04:57:32;1.83;;;0.73;;
40931;SDS011;36257;46.052;12.540;2023-08-31T04:59:58;1.27;;;0.70;;
40931;SDS011;36257;46.052;12.540;2023-08-31T05:02:23;3.53;;;0.80;;
40931;SDS011;36257;46.052;12.540;2023-08-31T05:04:49;0.60;;;0.52;;
40931;SDS011;36257;46.052;12.540;2023-08-31T05:07:15;3.33;;;0.70;;
40931;SDS011;36257;46.052;12.540;2023-08-31T05:09:41;0.65;;;0.65;;
40931;SDS011;36257;46.052;12.540;2023-08-31T05:12:06;4.40;;;0.60;;
40931;SDS011;36257;46.052;12.540;2023-08-31T05:14:32;2.55;;;0.60;;
40931;SDS011;36257;46.052;12.540;2023-08-31T05:17:02;3.70;;;0.60;;
40931;SDS011;36257;46.052;12.540;2023-08-31T05:19:28;1.10;;;0.60;;
40931;SDS011;36257;46.052;12.540;2023-08-31T05:21:54;4.05;;;0.63;;
40931;SDS011;36257;46.052;12.540;2023-08-31T05:24:19;3.28;;;0.50;;
40931;SDS011;36257;46.052;12.540;2023-08-31T05:26:45;1.38;;;0.60;;
40931;SDS011;36257;46.052;12.540;2023-08-31T05:29:11;0.60;;;0.60;;
40931;SDS011;36257;46.052;12.540;2023-08-31T05:31:36;2.53;;;0.60;;
40931;SDS011;36257;46.052;12.540;2023-08-31T05:34:02;2.13;;;0.57;;
40931;SDS011;36257;46.052;12.540;2023-08-31T05:36:28;1.75;;;0.57;;
40931;SDS011;36257;46.052;12.540;2023-08-31T05:38:53;5.75;;;0.88;;
40931;SDS011;36257;46.052;12.540;2023-08-31T05:41:19;2.30;;;0.60;;
40931;SDS011;36257;46.052;12.540;2023-08-31T05:43:46;4.60;;;0.70;;
40931;SDS011;36257;46.052;12.540;2023-08-31T05:46:12;0.70;;;0.57;;
40931;SDS011;36257;46.052;12.540;2023-08-31T05:48:37;0.55;;;0.50;;
40931;SDS011;36257;46.052;12.540;2023-08-31T05:51:03;0.60;;;0.50;;
40931;SDS011;36257;46.052;12.540;2023-08-31T05:53:29;1.08;;;0.52;;
40931;SDS011;36257;46.052;12.540;2023-08-31T05:55:58;1.40;;;0.50;;
40931;SDS011;36257;46.052;12.540;2023-08-31T05:58:32;3.05;;;0.80;;
40931;SDS011;36257;46.052;12.540;2023-08-31T06:00:58;4.57;;;0.90;;
40931;SDS011;36257;46.052;12.540;2023-08-31T06:03:24;2.60;;;0.73;;
40931;SDS011;36257;46.052;12.540;2023-08-31T06:05:50;1.70;;;0.70;;
40931;SDS011;36257;46.052;12.540;2023-08-31T06:08:16;1.73;;;0.50;;
40931;SDS011;36257;46.052;12.540;2023-08-31T06:10:42;2.33;;;0.60;;
40931;SDS011;36257;46.052;12.540;2023-08-31T06:13:07;1.55;;;0.60;;
40931;SDS011;36257;46.052;12.540;2023-08-31T06:15:33;0.98;;;0.52;;
40931;SDS011;36257;46.052;12.540;2023-08-31T06:17:59;1.10;;;0.90;;
40931;SDS011;36257;46.052;12.540;2023-08-31T06:20:24;1.00;;;0.80;;
40931;SDS011;36257;46.052;12.540;2023-08-31T06:22:50;2.20;;;0.93;;
40931;SDS011;36257;46.052;12.540;2023-08-31T06:25:16;1.75;;;0.73;;
40931;SDS011;36257;46.052;12.540;2023-08-31T06:27:43;1.30;;;0.90;;
40931;SDS011;36257;46.052;12.540;2023-08-31T06:30:09;1.38;;;0.75;;
40931;SDS011;36257;46.052;12.540;2023-08-31T06:32:44;0.55;;;0.55;;
40931;SDS011;36257;46.052;12.540;2023-08-31T06:35:11;0.70;;;0.60;;
40931;SDS011;36257;46.052;12.540;2023-08-31T06:37:37;0.90;;;0.75;;
40931;SDS011;36257;46.052;12.540;2023-08-31T06:40:04;1.77;;;0.88;;
40931;SDS011;36257;46.052;12.540;2023-08-31T06:42:31;2.15;;;0.80;;
40931;SDS011;36257;46.052;12.540;2023-08-31T06:44:56;3.17;;;0.70;;
40931;SDS011;36257;46.052;12.540;2023-08-31T06:47:22;1.95;;;0.90;;
40931;SDS011;36257;46.052;12.540;2023-08-31T06:49:49;1.67;;;0.68;;
40931;SDS011;36257;46.052;12.540;2023-08-31T06:52:14;2.28;;;0.65;;
40931;SDS011;36257;46.052;12.540;2023-08-31T06:54:41;1.20;;;0.60;;
40931;SDS011;36257;46.052;12.540;2023-08-31T06:57:06;6.95;;;0.93;;
40931;SDS011;36257;46.052;12.540;2023-08-31T06:59:32;1.02;;;0.82;;
40931;SDS011;36257;46.052;12.540;2023-08-31T07:01:58;1.45;;;1.00;;
40931;SDS011;36257;46.052;12.540;2023-08-31T07:04:24;1.85;;;0.82;;
40931;SDS011;36257;46.052;12.540;2023-08-31T07:06:52;3.50;;;0.57;;
40931;SDS011;36257;46.052;12.540;2023-08-31T07:09:17;2.13;;;0.90;;
40931;SDS011;36257;46.052;12.540;2023-08-31T07:11:43;1.17;;;0.77;;
40931;SDS011;36257;46.052;12.540;2023-08-31T07:14:09;1.45;;;0.93;;
40931;SDS011;36257;46.052;12.540;2023-08-31T07:16:34;1.08;;;0.90;;
40931;SDS011;36257;46.052;12.540;2023-08-31T07:19:00;1.98;;;1.30;;
40931;SDS011;36257;46.052;12.540;2023-08-31T07:21:26;2.25;;;1.67;;
40931;SDS011;36257;46.052;12.540;2023-08-31T07:23:52;2.58;;;1.27;;
40931;SDS011;36257;46.052;12.540;2023-08-31T07:26:19;3.58;;;1.02;;
40931;SDS011;36257;46.052;12.540;2023-08-31T07:28:45;2.65;;;0.98;;
40931;SDS011;36257;46.052;12.540;2023-08-31T07:31:10;2.42;;;1.25;;
40931;SDS011;36257;46.052;12.540;2023-08-31T07:33:37;3.95;;;0.93;;
40931;SDS011;36257;46.052;12.540;2023-08-31T07:36:03;1.58;;;0.82;;
40931;SDS011;36257;46.052;12.540;2023-08-31T07:40:56;1.30;;;0.77;;
40931;SDS011;36257;46.052;12.540;2023-08-31T07:43:22;2.28;;;0.98;;
40931;SDS011;36257;46.052;12.540;2023-08-31T07:45:48;3.03;;;0.90;;
40931;SDS011;36257;46.052;12.540;2023-08-31T07:48:14;1.15;;;1.02;;
40931;SDS011;36257;46.052;12.540;2023-08-31T07:50:40;2.13;;;1.23;;
40931;SDS011;36257;46.052;12.540;2023-08-31T07:53:07;2.05;;;1.00;;
40931;SDS011;36257;46.052;12.540;2023-08-31T07:55:32;1.30;;;0.80;;
40931;SDS011;36257;46.052;12.540;2023-08-31T07:57:58;1.58;;;0.70;;
40931;SDS011;36257;46.052;12.540;2023-08-31T08:02:51;1.23;;;0.90;;
40931;SDS011;36257;46.052;12.540;2023-08-31T08:05:17;1.10;;;0.70;;
40931;SDS011;36257;46.052;12.540;2023-08-31T08:07:43;1.15;;;0.60;;
40931;SDS011;36257;46.052;12.540;2023-08-31T08:10:09;0.93;;;0.68;;
40931;SDS011;36257;46.052;12.540;2023-08-31T08:12:39;1.23;;;0.35;;
40931;SDS011;36257;46.052;12.540;2023-08-31T08:15:11;0.88;;;0.40;;
40931;SDS011;36257;46.052;12.540;2023-08-31T08:17:37;1.90;;;0.40;;
40931;SDS011;36257;46.052;12.540;2023-08-31T08:20:03;1.20;;;0.55;;
40931;SDS011;36257;46.052;12.540;2023-08-31T08:22:31;1.40;;;0.55;;
40931;SDS011;36257;46.052;12.540;2023-08-31T08:24:56;1.17;;;0.50;;
40931;SDS011;36257;46.052;12.540;2023-08-31T08:27:22;3.40;;;0.82;;
40931;SDS011;36257;46.052;12.540;2023-08-31T08:29:48;2.92;;;0.63;;
40931;SDS011;36257;46.052;12.540;2023-08-31T08:32:13;1.17;;;0.93;;
40931;SDS011;36257;46.052;12.540;2023-08-31T08:34:39;4.20;;;0.98;;
40931;SDS011;36257;46.052;12.540;2023-08-31T08:37:05;1.60;;;0.88;;
40931;SDS011;36257;46.052;12.540;2023-08-31T08:39:31;1.95;;;0.60;;
40931;SDS011;36257;46.052;12.540;2023-08-31T08:41:57;2.70;;;0.70;;
40931;SDS011;36257;46.052;12.540;2023-08-31T08:46:56;4.55;;;0.95;;
40931;SDS011;36257;46.052;12.540;2023-08-31T08:49:24;3.50;;;0.80;;
40931;SDS011;36257;46.052;12.540;2023-08-31T08:51:51;2.65;;;1.00;;
40931;SDS011;36257;46.052;12.540;2023-08-31T08:54:18;1.02;;;0.70;;
40931;SDS011;36257;46.052;12.540;2023-08-31T08:59:10;2.10;;;0.98;;
40931;SDS011;36257;46.052;12.540;2023-08-31T09:01:38;1.00;;;0.65;;
40931;SDS011;36257;46.052;12.540;2023-08-31T09:04:04;2.42;;;0.65;;
40931;SDS011;36257;46.052;12.540;2023-08-31T09:06:31;0.98;;;0.70;;
40931;SDS011;36257;46.052;12.540;2023-08-31T09:08:57;2.42;;;1.00;;
40931;SDS011;36257;46.052;12.540;2023-08-31T09:11:23;1.60;;;0.52;;
40931;SDS011;36257;46.052;12.540;2023-08-31T09:13:50;2.33;;;0.60;;
40931;SDS011;36257;46.052;12.540;2023-08-31T09:16:23;1.43;;;0.60;;
40931;SDS011;36257;46.052;12.540;2023-08-31T09:18:55;2.17;;;0.52;;
40931;SDS011;36257;46.052;12.540;2023-08-31T09:21:22;0.60;;;0.38;;
40931;SDS011;36257;46.052;12.540;2023-08-31T09:23:59;0.57;;;0.47;;
40931;SDS011;36257;46.052;12.540;2023-08-31T09:26:25;0.55;;;0.40;;
40931;SDS011;36257;46.052;12.540;2023-08-31T09:28:51;1.80;;;0.40;;
40931;SDS011;36257;46.052;12.540;2023-08-31T09:31:17;1.37;;;0.43;;
40931;SDS011;36257;46.052;12.540;2023-08-31T09:33:50;1.17;;;0.40;;
40931;SDS011;36257;46.052;12.540;2023-08-31T09:36:17;7.47;;;0.63;;
40931;SDS011;36257;46.052;12.540;2023-08-31T09:38:43;2.83;;;0.85;;
40931;SDS011;36257;46.052;12.540;2023-08-31T09:41:09;1.58;;;0.80;;
40931;SDS011;36257;46.052;12.540;2023-08-31T09:43:35;1.42;;;0.60;;
40931;SDS011;36257;46.052;12.540;2023-08-31T09:46:02;2.10;;;0.43;;
40931;SDS011;36257;46.052;12.540;2023-08-31T09:48:29;0.50;;;0.45;;
40931;SDS011;36257;46.052;12.540;2023-08-31T09:50:56;1.00;;;0.60;;
40931;SDS011;36257;46.052;12.540;2023-08-31T09:53:25;0.55;;;0.50;;
40931;SDS011;36257;46.052;12.540;2023-08-31T09:55:54;2.20;;;0.45;;
40931;SDS011;36257;46.052;12.540;2023-08-31T09:58:21;1.27;;;0.55;;
40931;SDS011;36257;46.052;12.540;2023-08-31T10:00:51;1.58;;;0.50;;
40931;SDS011;36257;46.052;12.540;2023-08-31T10:03:17;1.10;;;0.47;;
40931;SDS011;36257;46.052;12.540;2023-08-31T10:05:45;1.67;;;0.32;;
40931;SDS011;36257;46.052;12.540;2023-08-31T10:08:13;1.38;;;0.45;;
40931;SDS011;36257;46.052;12.540;2023-08-31T10:10:40;1.10;;;0.38;;
40931;SDS011;36257;46.052;12.540;2023-08-31T10:13:06;0.68;;;0.40;;
40931;SDS011;36257;46.052;12.540;2023-08-31T10:15:32;2.63;;;0.33;;
40931;SDS011;36257;46.052;12.540;2023-08-31T10:18:00;1.25;;;0.30;;
40931;SDS011;36257;46.052;12.540;2023-08-31T10:22:56;0.65;;;0.30;;
40931;SDS011;36257;46.052;12.540;2023-08-31T10:25:23;2.25;;;0.47;;
40931;SDS011;36257;46.052;12.540;2023-08-31T10:27:49;0.63;;;0.20;;
40931;SDS011;36257;46.052;12.540;2023-08-31T10:30:24;0.50;;;0.40;;
40931;SDS011;36257;46.052;12.540;2023-08-31T10:38:25;2.35;;;0.40;;
40931;SDS011;36257;46.052;12.540;2023-08-31T10:43:50;0.57;;;0.32;;
40931;SDS011;36257;46.052;12.540;2023-08-31T10:51:30;0.40;;;0.20;;
40931;SDS011;36257;46.052;12.540;2023-08-31T10:54:10;1.20;;;0.47;;
40931;SDS011;36257;46.052;12.540;2023-08-31T10:59:53;0.40;;;0.20;;
40931;SDS011;36257;46.052;12.540;2023-08-31T11:02:38;1.13;;;0.37;;
40931;SDS011;36257;46.052;12.540;2023-08-31T11:05:12;1.33;;;0.30;;
40931;SDS011;36257;46.052;12.540;2023-08-31T11:07:42;0.50;;;0.30;;
40931;SDS011;36257;46.052;12.540;2023-08-31T11:12:47;0.15;;;0.13;;
40931;SDS011;36257;46.052;12.540;2023-08-31T11:15:21;0.90;;;0.15;;
40931;SDS011;36257;46.052;12.540;2023-08-31T11:17:51;0.10;;;0.10;;
40931;SDS011;36257;46.052;12.540;2023-08-31T11:20:19;2.85;;;0.28;;
40931;SDS011;36257;46.052;12.540;2023-08-31T11:22:46;2.13;;;0.20;;
40931;SDS011;36257;46.052;12.540;2023-08-31T11:25:18;0.47;;;0.20;;
40931;SDS011;36257;46.052;12.540;2023-08-31T11:27:59;2.38;;;0.80;;
40931;SDS011;36257;46.052;12.540;2023-08-31T11:30:27;0.47;;;0.40;;
40931;SDS011;36257;46.052;12.540;2023-08-31T11:33:00;0.38;;;0.20;;
40931;SDS011;36257;46.052;12.540;2023-08-31T11:35:34;0.60;;;0.43;;
40931;SDS011;36257;46.052;12.540;2023-08-31T11:38:01;1.02;;;0.55;;
40931;SDS011;36257;46.052;12.540;2023-08-31T11:40:28;1.10;;;0.28;;
40931;SDS011;36257;46.052;12.540;2023-08-31T11:42:54;1.95;;;0.40;;
40931;SDS011;36257;46.052;12.540;2023-08-31T11:45:21;1.07;;;0.30;;
40931;SDS011;36257;46.052;12.540;2023-08-31T11:47:48;1.60;;;0.20;;
40931;SDS011;36257;46.052;12.540;2023-08-31T11:50:15;1.38;;;0.40;;
40931;SDS011;36257;46.052;12.540;2023-08-31T11:52:42;2.30;;;0.30;;
40931;SDS011;36257;46.052;12.540;2023-08-31T11:55:13;0.68;;;0.50;;
40931;SDS011;36257;46.052;12.540;2023-08-31T11:57:47;0.50;;;0.30;;
40931;SDS011;36257;46.052;12.540;2023-08-31T12:00:16;0.52;;;0.30;;
40931;SDS011;36257;46.052;12.540;2023-08-31T12:02:42;0.32;;;0.30;;
40931;SDS011;36257;46.052;12.540;2023-08-31T12:05:11;0.30;;;0.25;;
40931;SDS011;36257;46.052;12.540;2023-08-31T12:07:40;1.02;;;0.30;;
40931;SDS011;36257;46.052;12.540;2023-08-31T12:10:09;0.32;;;0.22;;
40931;SDS011;36257;46.052;12.540;2023-08-31T12:12:35;1.00;;;0.30;;
40931;SDS011;36257;46.052;12.540;2023-08-31T12:15:02;2.47;;;0.40;;
40931;SDS011;36257;46.052;12.540;2023-08-31T12:17:31;1.25;;;0.22;;
40931;SDS011;36257;46.052;12.540;2023-08-31T12:20:04;0.45;;;0.30;;
40931;SDS011;36257;46.052;12.540;2023-08-31T12:22:31;2.47;;;0.30;;
40931;SDS011;36257;46.052;12.540;2023-08-31T12:24:57;2.05;;;0.65;;
40931;SDS011;36257;46.052;12.540;2023-08-31T12:27:23;0.75;;;0.35;;
40931;SDS011;36257;46.052;12.540;2023-08-31T12:29:49;1.00;;;0.38;;
40931;SDS011;36257;46.052;12.540;2023-08-31T12:32:15;1.23;;;0.40;;
40931;SDS011;36257;46.052;12.540;2023-08-31T12:34:43;0.70;;;0.35;;
40931;SDS011;36257;46.052;12.540;2023-08-31T12:37:09;1.88;;;0.30;;
40931;SDS011;36257;46.052;12.540;2023-08-31T12:39:35;1.60;;;0.30;;
40931;SDS011;36257;46.052;12.540;2023-08-31T12:42:02;0.95;;;0.80;;
40931;SDS011;36257;46.052;12.540;2023-08-31T12:44:28;2.10;;;0.98;;
40931;SDS011;36257;46.052;12.540;2023-08-31T12:46:54;1.00;;;0.52;;
40931;SDS011;36257;46.052;12.540;2023-08-31T12:49:20;0.85;;;0.40;;
40931;SDS011;36257;46.052;12.540;2023-08-31T12:51:46;1.23;;;0.40;;
40931;SDS011;36257;46.052;12.540;2023-08-31T12:54:13;0.40;;;0.40;;
40931;SDS011;36257;46.052;12.540;2023-08-31T12:56:40;0.80;;;0.55;;
40931;SDS011;36257;46.052;12.540;2023-08-31T12:59:06;2.38;;;0.50;;
40931;SDS011;36257;46.052;12.540;2023-08-31T13:01:32;2.38;;;0.57;;
40931;SDS011;36257;46.052;12.540;2023-08-31T13:03:58;1.80;;;0.70;;
40931;SDS011;36257;46.052;12.540;2023-08-31T13:06:24;0.82;;;0.60;;
40931;SDS011;36257;46.052;12.540;2023-08-31T13:08:51;2.15;;;0.88;;
40931;SDS011;36257;46.052;12.540;2023-08-31T13:11:17;8.02;;;1.70;;
40931;SDS011;36257;46.052;12.540;2023-08-31T13:13:48;5.88;;;1.10;;
40931;SDS011;36257;46.052;12.540;2023-08-31T13:16:16;6.05;;;1.45;;
40931;SDS011;36257;46.052;12.540;2023-08-31T13:18:42;4.38;;;1.02;;
40931;SDS011;36257;46.052;12.540;2023-08-31T13:21:07;5.50;;;1.35;;
40931;SDS011;36257;46.052;12.540;2023-08-31T13:23:33;7.85;;;1.88;;
40931;SDS011;36257;46.052;12.540;2023-08-31T13:25:59;3.33;;;1.33;;
40931;SDS011;36257;46.052;12.540;2023-08-31T13:28:25;5.53;;;1.65;;
40931;SDS011;36257;46.052;12.540;2023-08-31T13:30:55;2.15;;;1.33;;
40931;SDS011;36257;46.052;12.540;2023-08-31T13:33:22;3.65;;;1.38;;
40931;SDS011;36257;46.052;12.540;2023-08-31T13:35:48;12.27;;;2.88;;
40931;SDS011;36257;46.052;12.540;2023-08-31T13:38:14;5.07;;;1.33;;
40931;SDS011;36257;46.052;12.540;2023-08-31T13:40:40;4.70;;;1.75;;
40931;SDS011;36257;46.052;12.540;2023-08-31T13:43:05;5.30;;;1.60;;
40931;SDS011;36257;46.052;12.540;2023-08-31T13:45:31;4.10;;;1.30;;
40931;SDS011;36257;46.052;12.540;2023-08-31T13:48:00;2.92;;;1.35;;
40931;SDS011;36257;46.052;12.540;2023-08-31T13:50:26;4.32;;;1.40;;
40931;SDS011;36257;46.052;12.540;2023-08-31T13:52:52;2.88;;;0.95;;
40931;SDS011;36257;46.052;12.540;2023-08-31T13:55:18;3.08;;;1.10;;
40931;SDS011;36257;46.052;12.540;2023-08-31T13:57:44;2.15;;;1.00;;
40931;SDS011;36257;46.052;12.540;2023-08-31T14:00:10;2.58;;;1.20;;
40931;SDS011;36257;46.052;12.540;2023-08-31T14:02:37;2.10;;;0.88;;
40931;SDS011;36257;46.052;12.540;2023-08-31T14:05:04;3.05;;;1.00;;
40931;SDS011;36257;46.052;12.540;2023-08-31T14:07:31;2.70;;;0.70;;
40931;SDS011;36257;46.052;12.540;2023-08-31T14:09:57;2.22;;;0.65;;
40931;SDS011;36257;46.052;12.540;2023-08-31T14:12:23;3.03;;;0.90;;
40931;SDS011;36257;46.052;12.540;2023-08-31T14:14:50;4.60;;;1.38;;
40931;SDS011;36257;46.052;12.540;2023-08-31T14:17:17;3.50;;;1.20;;
40931;SDS011;36257;46.052;12.540;2023-08-31T14:19:42;3.10;;;0.90;;
40931;SDS011;36257;46.052;12.540;2023-08-31T14:22:08;3.78;;;1.00;;
40931;SDS011;36257;46.052;12.540;2023-08-31T14:24:35;3.37;;;1.40;;
40931;SDS011;36257;46.052;12.540;2023-08-31T14:27:02;2.55;;;0.82;;
40931;SDS011;36257;46.052;12.540;2023-08-31T14:29:28;2.15;;;0.85;;
40931;SDS011;36257;46.052;12.540;2023-08-31T14:31:54;2.00;;;0.60;;
40931;SDS011;36257;46.052;12.540;2023-08-31T14:34:20;1.98;;;0.60;;
40931;SDS011;36257;46.052;12.540;2023-08-31T14:36:46;6.50;;;0.90;;
40931;SDS011;36257;46.052;12.540;2023-08-31T14:39:12;1.45;;;0.98;;
40931;SDS011;36257;46.052;12.540;2023-08-31T14:41:39;2.30;;;0.98;;
40931;SDS011;36257;46.052;12.540;2023-08-31T14:44:05;3.03;;;1.10;;
40931;SDS011;36257;46.052;12.540;2023-08-31T14:46:31;4.00;;;1.13;;
40931;SDS011;36257;46.052;12.540;2023-08-31T14:48:57;3.17;;;1.02;;
40931;SDS011;36257;46.052;12.540;2023-08-31T14:51:22;7.65;;;1.48;;
40931;SDS011;36257;46.052;12.540;2023-08-31T14:53:48;4.30;;;1.52;;
40931;SDS011;36257;46.052;12.540;2023-08-31T14:56:13;2.45;;;1.40;;
40931;SDS011;36257;46.052;12.540;2023-08-31T14:58:39;1.88;;;1.55;;
40931;SDS011;36257;46.052;12.540;2023-08-31T15:01:05;3.15;;;0.88;;
40931;SDS011;36257;46.052;12.540;2023-08-31T15:03:31;1.05;;;0.70;;
40931;SDS011;36257;46.052;12.540;2023-08-31T15:05:56;1.30;;;0.50;;
40931;SDS011;36257;46.052;12.540;2023-08-31T15:08:23;2.10;;;0.80;;
40931;SDS011;36257;46.052;12.540;2023-08-31T15:11:01;2.05;;;0.88;;
40931;SDS011;36257;46.052;12.540;2023-08-31T15:13:27;1.40;;;0.77;;
40931;SDS011;36257;46.052;12.540;2023-08-31T15:15:53;3.60;;;0.90;;
40931;SDS011;36257;46.052;12.540;2023-08-31T15:18:19;5.95;;;1.00;;
40931;SDS011;36257;46.052;12.540;2023-08-31T15:20:44;2.88;;;0.73;;
40931;SDS011;36257;46.052;12.540;2023-08-31T15:23:10;2.42;;;0.90;;
40931;SDS011;36257;46.052;12.540;2023-08-31T15:25:36;2.05;;;0.70;;